Time;durP1;ratioP1;P1;durP2;ratioP2;P2;SDS_P1;SDS_P2;PMS_P1;PMS_P2;Temp;Humidity;BMP_temperature;BMP_pressure;BME280_temperature;BME280_humidity;BME280_pressure;Samples;Min_cycle;Max_cycle;Signal;HPM_P1;HPM_P2
2021/12/23 00:01:50;;;;;;;28.08;12.57;;;;;;;;;;5036534;28;20359;-55
2021/12/23 00:04:16;;;;;;;28.77;13.13;;;;;;;;;;5039567;28;20076;-57
2021/12/23 00:06:44;;;;;;;27.33;12.50;;;;;;;;;;5040608;28;20030;-54
2021/12/23 00:09:10;;;;;;;29.50;11.93;;;;;;;;;;5039594;28;20478;-56
2021/12/23 00:11:36;;;;;;;27.00;12.50;;;;;;;;;;5033870;28;20040;-55
2021/12/23 00:14:05;;;;;;;29.35;12.25;;;;;;;;;;5036802;28;20037;-57
2021/12/23 00:16:55;;;;;;;27.73;12.13;;;;;;;;;;5037780;28;20018;-57
2021/12/23 00:19:35;;;;;;;27.17;12.02;;;;;;;;;;5034634;28;20533;-52
2021/12/23 00:24:46;;;;;;;32.67;13.45;;;;;;;;;;5039352;28;20676;-52
2021/12/23 00:27:14;;;;;;;28.42;11.70;;;;;;;;;;5034921;28;20038;-51
2021/12/23 00:29:40;;;;;;;33.10;12.60;;;;;;;;;;5035033;28;20409;-53
2021/12/23 00:32:08;;;;;;;27.30;12.13;;;;;;;;;;5033481;28;20026;-54
2021/12/23 00:34:34;;;;;;;30.63;13.15;;;;;;;;;;5033487;28;20057;-55
2021/12/23 00:37:01;;;;;;;28.83;12.63;;;;;;;;;;5031955;28;20028;-54
2021/12/23 00:39:29;;;;;;;23.65;11.15;;;;;;;;;;5033941;28;20057;-56
2021/12/23 00:42:05;;;;;;;26.08;11.43;;;;;;;;;;5033001;28;20482;-57
2021/12/23 00:44:31;;;;;;;26.20;11.70;;;;;;;;;;5033750;28;20034;-55
2021/12/23 00:46:57;;;;;;;25.60;11.27;;;;;;;;;;5028008;28;20052;-55
2021/12/23 00:49:23;;;;;;;31.02;13.48;;;;;;;;;;5032310;28;20044;-52
2021/12/23 00:51:49;;;;;;;28.55;12.45;;;;;;;;;;5032854;28;20018;-57
2021/12/23 00:54:15;;;;;;;29.48;11.88;;;;;;;;;;5030633;28;20033;-57
2021/12/23 00:56:41;;;;;;;28.58;11.65;;;;;;;;;;5033385;28;20087;-55
2021/12/23 00:59:08;;;;;;;29.60;12.23;;;;;;;;;;5033210;28;20065;-55
2021/12/23 01:01:34;;;;;;;26.83;11.77;;;;;;;;;;5030092;28;20545;-54
2021/12/23 01:04:00;;;;;;;28.67;11.95;;;;;;;;;;5029544;28;20034;-56
2021/12/23 01:06:26;;;;;;;29.17;11.57;;;;;;;;;;5030084;28;20044;-56
2021/12/23 01:08:52;;;;;;;26.45;11.82;;;;;;;;;;5033190;28;20033;-57
2021/12/23 01:11:19;;;;;;;26.95;10.70;;;;;;;;;;5032825;28;20152;-52
2021/12/23 01:14:02;;;;;;;26.35;11.27;;;;;;;;;;5026577;28;20167;-57
2021/12/23 01:16:49;;;;;;;24.10;10.57;;;;;;;;;;5032708;28;20537;-56
2021/12/23 01:19:19;;;;;;;31.42;11.80;;;;;;;;;;5026489;28;20489;-54
2021/12/23 01:21:45;;;;;;;27.52;12.27;;;;;;;;;;5031088;28;20033;-57
2021/12/23 01:24:11;;;;;;;24.00;11.25;;;;;;;;;;5033088;28;20036;-57
2021/12/23 01:26:39;;;;;;;28.27;11.77;;;;;;;;;;5031223;28;20080;-53
2021/12/23 01:29:05;;;;;;;24.45;10.95;;;;;;;;;;5032496;28;20041;-51
2021/12/23 01:31:32;;;;;;;25.55;10.95;;;;;;;;;;5032014;28;20083;-57
2021/12/23 01:33:58;;;;;;;28.38;13.20;;;;;;;;;;5025898;28;20104;-52
2021/12/23 01:36:24;;;;;;;33.00;12.30;;;;;;;;;;5032029;28;20041;-54
2021/12/23 01:38:51;;;;;;;29.55;13.25;;;;;;;;;;5027685;28;20094;-55
2021/12/23 01:41:17;;;;;;;25.38;11.00;;;;;;;;;;5024494;28;20163;-52
2021/12/23 01:43:43;;;;;;;25.25;11.68;;;;;;;;;;5023884;28;20681;-54
2021/12/23 01:46:09;;;;;;;29.05;12.52;;;;;;;;;;5032271;28;20036;-57
2021/12/23 01:48:35;;;;;;;26.48;11.13;;;;;;;;;;5032239;28;20029;-57
2021/12/23 01:51:01;;;;;;;24.80;11.68;;;;;;;;;;5019621;28;20395;-57
2021/12/23 01:53:27;;;;;;;31.38;12.90;;;;;;;;;;5030998;28;20033;-56
2021/12/23 01:55:53;;;;;;;25.42;11.30;;;;;;;;;;5029706;28;20084;-52
2021/12/23 01:58:20;;;;;;;27.90;11.52;;;;;;;;;;5030071;28;20033;-54
2021/12/23 02:00:48;;;;;;;25.77;11.32;;;;;;;;;;5030194;28;20509;-57
2021/12/23 02:03:14;;;;;;;28.73;12.77;;;;;;;;;;5024461;28;20037;-56
2021/12/23 02:05:40;;;;;;;25.48;10.82;;;;;;;;;;5021449;28;20034;-57
2021/12/23 02:08:06;;;;;;;22.02;10.57;;;;;;;;;;5022645;28;20168;-54
2021/12/23 02:10:32;;;;;;;30.52;11.82;;;;;;;;;;5029097;28;20402;-54
2021/12/23 02:12:58;;;;;;;22.08;11.05;;;;;;;;;;5026720;28;20056;-55
2021/12/23 02:15:25;;;;;;;25.60;11.40;;;;;;;;;;5028934;28;20040;-54
2021/12/23 02:17:51;;;;;;;26.08;11.68;;;;;;;;;;5031797;28;20033;-55
2021/12/23 02:20:19;;;;;;;28.90;13.45;;;;;;;;;;5025101;28;20407;-57
2021/12/23 02:22:45;;;;;;;29.90;13.05;;;;;;;;;;5030392;28;20041;-53
2021/12/23 02:25:11;;;;;;;26.75;12.00;;;;;;;;;;5027786;28;20044;-55
2021/12/23 02:27:38;;;;;;;29.15;12.05;;;;;;;;;;5031506;28;20033;-55
2021/12/23 02:30:06;;;;;;;27.83;12.57;;;;;;;;;;5028239;28;20025;-55
2021/12/23 02:32:34;;;;;;;28.70;12.15;;;;;;;;;;5029743;28;20028;-56
2021/12/23 02:35:00;;;;;;;28.40;13.32;;;;;;;;;;5023580;28;20056;-54
2021/12/23 02:37:26;;;;;;;32.90;14.52;;;;;;;;;;5029577;28;20025;-57
2021/12/23 02:39:52;;;;;;;38.38;13.23;;;;;;;;;;5031780;28;20041;-54
2021/12/23 02:42:18;;;;;;;31.48;14.00;;;;;;;;;;5027228;28;20042;-51
2021/12/23 02:44:44;;;;;;;30.92;13.80;;;;;;;;;;5029584;28;20017;-54
2021/12/23 02:47:10;;;;;;;28.80;12.18;;;;;;;;;;5033602;28;20021;-56
2021/12/23 02:49:36;;;;;;;30.38;12.75;;;;;;;;;;5033416;28;20112;-57
2021/12/23 02:52:02;;;;;;;29.10;12.77;;;;;;;;;;5020217;28;20041;-55
2021/12/23 02:54:28;;;;;;;27.65;13.65;;;;;;;;;;5033394;28;20759;-57
2021/12/23 02:56:54;;;;;;;27.35;12.93;;;;;;;;;;5030624;28;20017;-57
2021/12/23 02:59:20;;;;;;;32.17;13.55;;;;;;;;;;5029933;28;20473;-57
2021/12/23 03:01:46;;;;;;;31.95;12.77;;;;;;;;;;5029058;28;20025;-56
2021/12/23 03:04:12;;;;;;;30.63;12.73;;;;;;;;;;5033552;28;20116;-56
2021/12/23 03:06:38;;;;;;;34.05;12.98;;;;;;;;;;5031097;28;20471;-56
2021/12/23 03:09:04;;;;;;;28.85;12.32;;;;;;;;;;5035080;28;20057;-55
2021/12/23 03:11:31;;;;;;;27.63;11.50;;;;;;;;;;5027104;28;20036;-52
2021/12/23 03:13:57;;;;;;;30.45;13.43;;;;;;;;;;5030167;28;20671;-53
2021/12/23 03:16:35;;;;;;;31.15;13.25;;;;;;;;;;5034858;28;20099;-56
2021/12/23 03:19:01;;;;;;;29.23;12.25;;;;;;;;;;5036306;28;20032;-57
2021/12/23 03:21:27;;;;;;;32.58;13.38;;;;;;;;;;5028944;28;20207;-56
2021/12/23 03:23:53;;;;;;;27.50;12.48;;;;;;;;;;5028982;28;20525;-57
2021/12/23 03:26:19;;;;;;;28.27;12.82;;;;;;;;;;5027931;28;20038;-51
2021/12/23 03:28:45;;;;;;;27.08;12.82;;;;;;;;;;5025138;28;20029;-55
2021/12/23 03:31:11;;;;;;;26.55;12.68;;;;;;;;;;5024357;28;20022;-56
2021/12/23 03:33:37;;;;;;;30.17;14.13;;;;;;;;;;5032684;28;20029;-56
2021/12/23 03:36:04;;;;;;;29.60;12.52;;;;;;;;;;5027254;28;20320;-55
2021/12/23 03:38:31;;;;;;;28.58;12.90;;;;;;;;;;5025759;28;20354;-56
2021/12/23 03:40:57;;;;;;;24.45;11.63;;;;;;;;;;5031860;28;20033;-54
2021/12/23 03:43:23;;;;;;;29.85;13.07;;;;;;;;;;5027830;28;20032;-57
2021/12/23 03:45:50;;;;;;;29.27;13.38;;;;;;;;;;5027081;28;20083;-56
2021/12/23 03:48:17;;;;;;;30.65;13.35;;;;;;;;;;5029790;28;20040;-57
2021/12/23 03:50:44;;;;;;;27.27;12.75;;;;;;;;;;5031498;28;20100;-55
2021/12/23 03:53:10;;;;;;;26.00;13.13;;;;;;;;;;5029318;28;20036;-54
2021/12/23 03:55:36;;;;;;;27.83;13.32;;;;;;;;;;5030433;28;20405;-57
2021/12/23 03:58:02;;;;;;;29.85;13.25;;;;;;;;;;5027334;28;20041;-51
2021/12/23 04:00:28;;;;;;;30.90;12.98;;;;;;;;;;5031851;28;20032;-55
2021/12/23 04:02:55;;;;;;;29.38;12.18;;;;;;;;;;5026328;28;20022;-56
2021/12/23 04:05:21;;;;;;;32.28;13.32;;;;;;;;;;5027903;28;20037;-56
2021/12/23 04:07:47;;;;;;;29.23;13.30;;;;;;;;;;5028915;28;20034;-57
2021/12/23 04:10:15;;;;;;;32.20;13.60;;;;;;;;;;5033728;28;20037;-57
2021/12/23 04:12:41;;;;;;;28.33;13.07;;;;;;;;;;5034967;28;20029;-54
2021/12/23 04:15:08;;;;;;;35.65;13.98;;;;;;;;;;5038274;28;20030;-57
2021/12/23 04:17:34;;;;;;;28.75;13.82;;;;;;;;;;5030076;28;20377;-56
2021/12/23 04:20:13;;;;;;;29.23;13.23;;;;;;;;;;5032368;28;20026;-56
2021/12/23 04:22:39;;;;;;;26.42;13.93;;;;;;;;;;5030440;28;20091;-56
2021/12/23 04:25:05;;;;;;;33.15;13.82;;;;;;;;;;5030502;28;20025;-57
2021/12/23 04:27:31;;;;;;;33.38;12.82;;;;;;;;;;5034258;28;20032;-53
2021/12/23 04:29:57;;;;;;;32.80;13.90;;;;;;;;;;5028678;28;20030;-57
2021/12/23 04:32:23;;;;;;;34.67;15.13;;;;;;;;;;5035269;28;20026;-56
2021/12/23 04:34:49;;;;;;;35.97;13.40;;;;;;;;;;5029974;28;20120;-55
2021/12/23 04:37:16;;;;;;;29.40;13.07;;;;;;;;;;5032471;28;20105;-52
2021/12/23 04:39:42;;;;;;;28.55;13.05;;;;;;;;;;5032634;28;20033;-53
2021/12/23 04:42:08;;;;;;;30.05;13.68;;;;;;;;;;5033466;28;20029;-52
2021/12/23 04:44:34;;;;;;;29.60;13.23;;;;;;;;;;5030775;28;20112;-51
2021/12/23 04:47:00;;;;;;;33.65;13.82;;;;;;;;;;5025767;28;20467;-52
2021/12/23 04:49:26;;;;;;;30.40;13.70;;;;;;;;;;5032784;28;20029;-54
2021/12/23 04:51:52;;;;;;;31.95;14.48;;;;;;;;;;5033573;28;20096;-54
2021/12/23 04:54:18;;;;;;;29.45;12.82;;;;;;;;;;5029829;28;20080;-52
2021/12/23 04:56:44;;;;;;;36.30;14.23;;;;;;;;;;5032469;28;20056;-55
2021/12/23 04:59:10;;;;;;;34.72;14.57;;;;;;;;;;5031654;28;20105;-57
2021/12/23 05:01:36;;;;;;;35.78;13.73;;;;;;;;;;5031582;28;20028;-57
2021/12/23 05:04:02;;;;;;;30.35;13.55;;;;;;;;;;5030471;28;20025;-57
2021/12/23 05:06:28;;;;;;;36.33;14.70;;;;;;;;;;5032685;28;20038;-57
2021/12/23 05:08:54;;;;;;;33.10;13.43;;;;;;;;;;5032030;28;20027;-57
2021/12/23 05:11:20;;;;;;;31.52;13.30;;;;;;;;;;5029712;28;20037;-56
2021/12/23 05:13:49;;;;;;;32.05;14.23;;;;;;;;;;5031544;28;20064;-56
2021/12/23 05:16:16;;;;;;;33.85;14.15;;;;;;;;;;5030325;28;20025;-56
2021/12/23 05:18:42;;;;;;;28.15;13.13;;;;;;;;;;5028197;28;20026;-56
2021/12/23 05:21:08;;;;;;;35.03;14.80;;;;;;;;;;5029460;28;20080;-56
2021/12/23 05:23:34;;;;;;;30.88;12.95;;;;;;;;;;5030345;28;20072;-56
2021/12/23 05:26:00;;;;;;;33.80;14.48;;;;;;;;;;5031991;28;20026;-55
2021/12/23 05:28:26;;;;;;;31.67;14.38;;;;;;;;;;5031175;28;20044;-54
2021/12/23 05:30:53;;;;;;;31.75;14.05;;;;;;;;;;5035063;28;20037;-57
2021/12/23 05:33:19;;;;;;;37.00;14.80;;;;;;;;;;5031120;28;20175;-52
2021/12/23 05:35:45;;;;;;;29.67;13.70;;;;;;;;;;5032601;28;20750;-56
2021/12/23 05:38:11;;;;;;;34.97;14.27;;;;;;;;;;5021880;28;20029;-55
2021/12/23 05:40:37;;;;;;;32.67;14.50;;;;;;;;;;5030675;28;20966;-53
2021/12/23 05:43:03;;;;;;;30.67;13.20;;;;;;;;;;5028511;28;20036;-57
2021/12/23 05:45:29;;;;;;;35.00;14.35;;;;;;;;;;5022060;28;20056;-56
2021/12/23 05:47:55;;;;;;;33.83;14.90;;;;;;;;;;5030342;28;20026;-52
2021/12/23 05:50:23;;;;;;;30.17;14.55;;;;;;;;;;5028381;28;20040;-57
2021/12/23 05:52:49;;;;;;;30.80;13.13;;;;;;;;;;5026100;28;20025;-57
2021/12/23 05:55:16;;;;;;;29.98;13.82;;;;;;;;;;5020328;28;20100;-56
2021/12/23 05:57:42;;;;;;;33.28;14.27;;;;;;;;;;5029074;28;20018;-57
2021/12/23 06:00:16;;;;;;;34.20;14.98;;;;;;;;;;5032053;28;20163;-54
2021/12/23 06:02:42;;;;;;;36.80;14.77;;;;;;;;;;5032070;28;20041;-52
2021/12/23 06:05:08;;;;;;;30.67;14.55;;;;;;;;;;5032301;28;20032;-57
2021/12/23 06:07:34;;;;;;;36.03;15.02;;;;;;;;;;5032669;28;20037;-57
2021/12/23 06:10:00;;;;;;;30.40;13.40;;;;;;;;;;5028015;28;20033;-56
2021/12/23 06:12:26;;;;;;;38.90;16.42;;;;;;;;;;5031422;28;20033;-55
2021/12/23 06:14:53;;;;;;;35.13;14.38;;;;;;;;;;5030301;28;20038;-57
2021/12/23 06:17:19;;;;;;;33.00;15.18;;;;;;;;;;5030641;28;20026;-53
2021/12/23 06:19:45;;;;;;;41.80;15.73;;;;;;;;;;5030712;28;20045;-54
2021/12/23 06:22:13;;;;;;;35.38;15.07;;;;;;;;;;5021304;28;20485;-57
2021/12/23 06:24:39;;;;;;;32.45;15.07;;;;;;;;;;5027582;28;20056;-56
2021/12/23 06:27:05;;;;;;;32.10;13.77;;;;;;;;;;5029689;28;20113;-57
2021/12/23 06:29:31;;;;;;;33.97;14.35;;;;;;;;;;5028236;28;20042;-55
2021/12/23 06:31:57;;;;;;;31.52;14.93;;;;;;;;;;5029547;28;20025;-57
2021/12/23 06:34:23;;;;;;;34.47;14.15;;;;;;;;;;5024894;28;20124;-57
2021/12/23 06:36:49;;;;;;;34.17;13.93;;;;;;;;;;5030945;28;20025;-54
2021/12/23 06:39:17;;;;;;;34.42;15.00;;;;;;;;;;5023134;28;20026;-57
2021/12/23 06:41:43;;;;;;;40.03;20.08;;;;;;;;;;5022371;28;20033;-57
2021/12/23 06:44:08;;;;;;;80.50;57.35;;;;;;;;;;5028221;28;20407;-54
2021/12/23 06:46:34;;;;;;;36.63;18.35;;;;;;;;;;5031806;28;20034;-56
2021/12/23 06:49:00;;;;;;;39.03;14.75;;;;;;;;;;5024628;28;20040;-57
2021/12/23 06:51:27;;;;;;;35.00;14.93;;;;;;;;;;5029987;28;20065;-57
2021/12/23 06:53:53;;;;;;;42.10;22.30;;;;;;;;;;5024410;28;20546;-55
2021/12/23 06:56:19;;;;;;;37.35;16.52;;;;;;;;;;5027086;28;20080;-53
2021/12/23 06:58:49;;;;;;;36.03;15.70;;;;;;;;;;5029878;28;20422;-52
2021/12/23 07:01:17;;;;;;;42.15;17.27;;;;;;;;;;5027646;28;20060;-57
2021/12/23 07:04:04;;;;;;;41.38;17.08;;;;;;;;;;5028725;28;20074;-56
2021/12/23 07:06:31;;;;;;;41.70;17.33;;;;;;;;;;5028768;28;20095;-56
2021/12/23 07:08:58;;;;;;;38.22;16.38;;;;;;;;;;5027593;28;20029;-53
2021/12/23 07:11:24;;;;;;;40.58;18.80;;;;;;;;;;5020390;28;20026;-54
2021/12/23 07:13:50;;;;;;;42.42;17.35;;;;;;;;;;5028406;28;20340;-53
2021/12/23 07:16:17;;;;;;;39.58;18.05;;;;;;;;;;5026670;28;20403;-56
2021/12/23 07:18:43;;;;;;;41.88;18.40;;;;;;;;;;5030803;28;20393;-53
2021/12/23 07:21:09;;;;;;;41.05;18.58;;;;;;;;;;5030862;28;20367;-53
2021/12/23 07:23:35;;;;;;;38.75;17.48;;;;;;;;;;5021749;28;20060;-55
2021/12/23 07:26:01;;;;;;;43.55;17.30;;;;;;;;;;5026307;28;20528;-55
2021/12/23 07:28:27;;;;;;;44.75;18.25;;;;;;;;;;5027972;28;20037;-57
2021/12/23 07:30:55;;;;;;;43.35;18.52;;;;;;;;;;5028092;28;20029;-56
2021/12/23 07:33:21;;;;;;;47.20;18.83;;;;;;;;;;5027548;28;20083;-56
2021/12/23 07:35:48;;;;;;;45.67;17.98;;;;;;;;;;5030531;28;20704;-57
2021/12/23 07:38:14;;;;;;;48.88;20.52;;;;;;;;;;5029821;28;20670;-52
2021/12/23 07:40:41;;;;;;;48.88;18.38;;;;;;;;;;5026253;28;20087;-55
2021/12/23 07:43:20;;;;;;;44.15;17.92;;;;;;;;;;5026812;28;20025;-56
2021/12/23 07:45:46;;;;;;;44.80;17.83;;;;;;;;;;5029318;28;20036;-53
2021/12/23 07:48:12;;;;;;;45.83;17.65;;;;;;;;;;5030485;28;20116;-56
2021/12/23 07:50:41;;;;;;;44.97;18.02;;;;;;;;;;5034396;28;20029;-57
2021/12/23 07:53:07;;;;;;;38.17;17.50;;;;;;;;;;5026864;28;20045;-54
2021/12/23 07:55:33;;;;;;;43.40;16.75;;;;;;;;;;5029488;28;20033;-57
2021/12/23 07:57:59;;;;;;;38.67;16.17;;;;;;;;;;5032113;28;20097;-53
2021/12/23 08:00:29;;;;;;;36.10;16.42;;;;;;;;;;5024936;28;20073;-55
2021/12/23 08:02:55;;;;;;;41.00;16.33;;;;;;;;;;5032994;28;20041;-53
2021/12/23 08:05:21;;;;;;;37.85;15.50;;;;;;;;;;5027574;28;20037;-53
2021/12/23 08:07:47;;;;;;;36.35;14.32;;;;;;;;;;5028976;28;20025;-57
2021/12/23 08:10:14;;;;;;;42.75;16.50;;;;;;;;;;5032267;28;20025;-52
2021/12/23 08:12:40;;;;;;;36.42;15.63;;;;;;;;;;5029316;28;20029;-56
2021/12/23 08:15:06;;;;;;;29.48;14.10;;;;;;;;;;5034087;28;20036;-52
2021/12/23 08:17:32;;;;;;;34.30;13.85;;;;;;;;;;5032843;28;20033;-53
2021/12/23 08:19:58;;;;;;;33.88;14.00;;;;;;;;;;5033096;28;20529;-56
2021/12/23 08:22:24;;;;;;;29.10;13.23;;;;;;;;;;5021996;28;20108;-56
2021/12/23 08:24:50;;;;;;;32.65;13.18;;;;;;;;;;5029247;28;20103;-55
2021/12/23 08:27:16;;;;;;;28.77;13.68;;;;;;;;;;5022886;28;20446;-57
2021/12/23 08:29:42;;;;;;;30.55;13.95;;;;;;;;;;5028171;28;20056;-54
2021/12/23 08:32:08;;;;;;;35.72;14.85;;;;;;;;;;5026907;28;20025;-52
2021/12/23 08:34:36;;;;;;;35.63;14.23;;;;;;;;;;5030569;28;20057;-53
2021/12/23 08:37:05;;;;;;;29.10;12.90;;;;;;;;;;5022590;28;20025;-57
2021/12/23 08:39:30;;;;;;;33.00;14.50;;;;;;;;;;5027419;28;20044;-52
2021/12/23 08:41:56;;;;;;;31.05;13.75;;;;;;;;;;5026105;28;20029;-54
2021/12/23 08:44:22;;;;;;;33.05;13.88;;;;;;;;;;5031622;28;20041;-52
2021/12/23 08:46:48;;;;;;;27.98;12.80;;;;;;;;;;5028081;28;20025;-55
2021/12/23 08:49:14;;;;;;;27.23;12.80;;;;;;;;;;5027844;28;20136;-53
2021/12/23 08:51:41;;;;;;;24.15;11.15;;;;;;;;;;5027720;28;20025;-56
2021/12/23 08:54:07;;;;;;;28.88;13.70;;;;;;;;;;5033813;28;20037;-55
2021/12/23 08:56:33;;;;;;;31.48;12.88;;;;;;;;;;5030357;28;20436;-54
2021/12/23 08:58:59;;;;;;;27.27;12.07;;;;;;;;;;5029574;28;20037;-53
2021/12/23 09:01:25;;;;;;;28.27;12.82;;;;;;;;;;5033562;28;20039;-56
2021/12/23 09:03:51;;;;;;;30.30;12.60;;;;;;;;;;5031018;28;20445;-52
2021/12/23 09:06:17;;;;;;;31.77;13.27;;;;;;;;;;5029899;28;20032;-56
2021/12/23 09:08:43;;;;;;;26.98;11.25;;;;;;;;;;5023354;28;20121;-56
2021/12/23 09:11:09;;;;;;;27.35;12.30;;;;;;;;;;5022865;28;20030;-56
2021/12/23 09:13:35;;;;;;;23.33;10.98;;;;;;;;;;5026141;28;20084;-56
2021/12/23 09:16:01;;;;;;;26.55;11.50;;;;;;;;;;5032313;28;20033;-54
2021/12/23 09:18:27;;;;;;;24.98;12.00;;;;;;;;;;5026786;28;20124;-56
2021/12/23 09:20:54;;;;;;;31.00;14.55;;;;;;;;;;5031490;28;20055;-56
2021/12/23 09:23:20;;;;;;;26.90;11.57;;;;;;;;;;5029894;28;20770;-57
2021/12/23 09:25:47;;;;;;;26.23;12.10;;;;;;;;;;5026683;28;20029;-57
2021/12/23 09:28:33;;;;;;;23.17;10.35;;;;;;;;;;5024433;28;20029;-54
2021/12/23 09:33:52;;;;;;;23.58;11.55;;;;;;;;;;5016860;28;20038;-57
2021/12/23 09:36:18;;;;;;;21.90;9.85;;;;;;;;;;5027147;28;20045;-57
2021/12/23 09:38:44;;;;;;;22.75;10.10;;;;;;;;;;5030409;28;20134;-51
2021/12/23 09:41:12;;;;;;;24.27;9.43;;;;;;;;;;5032792;28;20025;-57
2021/12/23 09:43:39;;;;;;;24.58;10.18;;;;;;;;;;5026544;28;20500;-57
2021/12/23 09:46:06;;;;;;;24.63;10.65;;;;;;;;;;5030788;28;20164;-57
2021/12/23 09:48:32;;;;;;;22.42;10.43;;;;;;;;;;5023732;28;20350;-57
2021/12/23 09:51:00;;;;;;;27.33;11.20;;;;;;;;;;5027125;28;20468;-55
2021/12/23 09:53:26;;;;;;;20.58;9.85;;;;;;;;;;5027565;28;20065;-57
2021/12/23 09:55:52;;;;;;;25.45;10.63;;;;;;;;;;5031704;28;20515;-58
2021/12/23 09:58:19;;;;;;;22.17;10.48;;;;;;;;;;5032883;28;20033;-57
2021/12/23 10:00:46;;;;;;;24.15;9.27;;;;;;;;;;5023362;28;20117;-54
2021/12/23 10:03:19;;;;;;;27.45;11.10;;;;;;;;;;5029373;28;20402;-57
2021/12/23 10:05:46;;;;;;;29.10;12.45;;;;;;;;;;5028324;28;20416;-57
2021/12/23 10:08:13;;;;;;;21.38;10.30;;;;;;;;;;5032550;28;20045;-56
2021/12/23 10:10:46;;;;;;;24.92;10.82;;;;;;;;;;5029633;28;20045;-57
2021/12/23 10:38:15;;;;;;;21.83;8.57;;;;;;;;;;5023455;28;20056;-54
2021/12/23 10:40:42;;;;;;;20.17;9.80;;;;;;;;;;5023978;28;20105;-55
2021/12/23 10:43:11;;;;;;;21.00;9.00;;;;;;;;;;5029368;28;20025;-54
2021/12/23 10:45:44;;;;;;;21.27;9.68;;;;;;;;;;5028227;28;20030;-51
2021/12/23 10:48:14;;;;;;;23.23;10.88;;;;;;;;;;5031964;28;20152;-53
2021/12/23 10:50:48;;;;;;;19.90;10.07;;;;;;;;;;5022072;28;20030;-56
2021/12/23 10:53:34;;;;;;;23.88;10.20;;;;;;;;;;5029142;28;20477;-56
2021/12/23 10:59:10;;;;;;;19.73;9.40;;;;;;;;;;5029118;28;20082;-56
2021/12/23 11:01:40;;;;;;;22.95;9.57;;;;;;;;;;5016635;28;20052;-56
2021/12/23 11:04:07;;;;;;;22.83;10.05;;;;;;;;;;5031886;28;20041;-53
2021/12/23 11:06:41;;;;;;;19.77;9.20;;;;;;;;;;5030148;28;20083;-55
2021/12/23 11:09:26;;;;;;;20.02;8.82;;;;;;;;;;5031316;28;20433;-54
2021/12/23 11:29:18;;;;;;;19.50;9.60;;;;;;;;;;5032943;28;20043;-52
2021/12/23 11:37:38;;;;;;;20.52;8.50;;;;;;;;;;5032038;28;20032;-57
2021/12/23 11:40:10;;;;;;;19.40;9.27;;;;;;;;;;5028587;28;20060;-56
2021/12/23 11:43:02;;;;;;;18.85;8.88;;;;;;;;;;5033572;28;20033;-57
2021/12/23 11:45:25;;;;;;;17.15;9.00;;;;;;;;;;5032094;28;20025;-57
2021/12/23 11:47:52;;;;;;;21.10;9.30;;;;;;;;;;5033941;28;20767;-57
2021/12/23 11:50:29;;;;;;;15.68;8.23;;;;;;;;;;5032663;28;20057;-56
2021/12/23 11:52:55;;;;;;;18.25;8.73;;;;;;;;;;5032422;28;20025;-57
2021/12/23 11:55:21;;;;;;;18.05;8.68;;;;;;;;;;5034419;28;20036;-57
2021/12/23 11:57:47;;;;;;;20.58;9.05;;;;;;;;;;5033456;28;20120;-56
2021/12/23 12:00:32;;;;;;;21.13;8.00;;;;;;;;;;5033190;28;20026;-56
2021/12/23 12:02:58;;;;;;;23.85;8.57;;;;;;;;;;5031760;28;20021;-52
2021/12/23 12:05:25;;;;;;;15.73;8.00;;;;;;;;;;5033800;28;20021;-58
2021/12/23 12:08:04;;;;;;;17.48;8.27;;;;;;;;;;5033867;28;20030;-57
2021/12/23 12:10:32;;;;;;;18.42;7.78;;;;;;;;;;5032047;28;20370;-57
2021/12/23 12:13:03;;;;;;;16.25;8.27;;;;;;;;;;5033931;28;20030;-55
2021/12/23 12:15:47;;;;;;;18.23;8.75;;;;;;;;;;5031260;28;20049;-52
2021/12/23 12:18:15;;;;;;;15.85;8.75;;;;;;;;;;5033453;28;20065;-57
2021/12/23 12:20:51;;;;;;;16.00;8.27;;;;;;;;;;5033451;28;20033;-57
2021/12/23 12:23:20;;;;;;;17.90;8.43;;;;;;;;;;5032876;28;20051;-56
2021/12/23 12:25:56;;;;;;;17.20;8.38;;;;;;;;;;5033186;28;20111;-57
2021/12/23 12:28:36;;;;;;;18.33;8.57;;;;;;;;;;5030479;28;20647;-55
2021/12/23 12:31:06;;;;;;;16.25;7.90;;;;;;;;;;5028978;28;20025;-54
2021/12/23 12:33:34;;;;;;;18.73;8.82;;;;;;;;;;5028557;28;20351;-56
2021/12/23 12:36:06;;;;;;;18.45;8.15;;;;;;;;;;5029439;28;20481;-54
2021/12/23 12:38:37;;;;;;;15.93;7.75;;;;;;;;;;5031420;28;20029;-57
2021/12/23 12:41:11;;;;;;;21.15;9.13;;;;;;;;;;5026876;28;20104;-56
2021/12/23 12:43:46;;;;;;;17.10;8.00;;;;;;;;;;5031359;28;20029;-52
2021/12/23 12:46:25;;;;;;;16.35;8.90;;;;;;;;;;5031857;28;20116;-56
2021/12/23 12:49:02;;;;;;;16.60;8.32;;;;;;;;;;5032816;28;20029;-55
2021/12/23 12:51:27;;;;;;;16.38;8.60;;;;;;;;;;5029740;28;20392;-55
2021/12/23 12:54:04;;;;;;;19.02;7.97;;;;;;;;;;5034371;28;20078;-55
2021/12/23 12:56:31;;;;;;;17.13;7.90;;;;;;;;;;5028082;28;20120;-56
2021/12/23 12:58:57;;;;;;;17.58;8.65;;;;;;;;;;5033476;28;20033;-57
2021/12/23 13:01:43;;;;;;;21.33;8.63;;;;;;;;;;5031247;28;20030;-52
2021/12/23 13:04:33;;;;;;;15.77;8.02;;;;;;;;;;5028138;28;20049;-54
2021/12/23 13:07:11;;;;;;;14.13;8.68;;;;;;;;;;5033002;28;20064;-57
2021/12/23 13:09:48;;;;;;;17.95;8.13;;;;;;;;;;5024005;28;20029;-57
2021/12/23 13:12:28;;;;;;;16.02;8.15;;;;;;;;;;5032938;28;20108;-57
2021/12/23 13:15:15;;;;;;;15.77;8.25;;;;;;;;;;5032620;28;20037;-51
2021/12/23 13:17:50;;;;;;;18.90;9.02;;;;;;;;;;5032986;28;20096;-54
2021/12/23 13:20:17;;;;;;;21.83;9.93;;;;;;;;;;5026870;28;20032;-53
2021/12/23 13:22:44;;;;;;;16.75;8.82;;;;;;;;;;5022472;28;20083;-54
2021/12/23 13:25:10;;;;;;;22.65;10.68;;;;;;;;;;5030899;28;20535;-54
2021/12/23 13:27:40;;;;;;;16.90;9.23;;;;;;;;;;5032774;28;20053;-53
2021/12/23 13:30:08;;;;;;;18.23;8.38;;;;;;;;;;5029121;28;20065;-51
2021/12/23 13:32:34;;;;;;;19.08;8.73;;;;;;;;;;5032211;28;20414;-52
2021/12/23 13:35:14;;;;;;;20.40;9.10;;;;;;;;;;5024431;28;20038;-57
2021/12/23 13:37:44;;;;;;;17.65;8.52;;;;;;;;;;5025677;28;20021;-54
2021/12/23 13:40:10;;;;;;;17.90;8.32;;;;;;;;;;5029736;28;20096;-54
2021/12/23 13:42:40;;;;;;;17.92;8.68;;;;;;;;;;5030219;28;20025;-54
2021/12/23 13:45:06;;;;;;;18.92;8.82;;;;;;;;;;5028482;28;20036;-57
2021/12/23 13:47:34;;;;;;;17.58;8.00;;;;;;;;;;5028430;28;20029;-57
2021/12/23 13:50:00;;;;;;;17.17;8.20;;;;;;;;;;5028436;28;20029;-53
2021/12/23 13:52:34;;;;;;;18.60;9.18;;;;;;;;;;5029014;28;20017;-57
2021/12/23 13:55:04;;;;;;;19.05;9.10;;;;;;;;;;5028343;28;20032;-55
2021/12/23 13:57:32;;;;;;;14.55;8.13;;;;;;;;;;5026497;28;20033;-56
2021/12/23 13:59:58;;;;;;;15.98;8.30;;;;;;;;;;5025349;28;20126;-55
2021/12/23 14:02:25;;;;;;;18.92;8.65;;;;;;;;;;5024333;28;20041;-56
2021/12/23 14:04:51;;;;;;;21.23;9.10;;;;;;;;;;5027583;28;20120;-57
2021/12/23 14:07:19;;;;;;;17.00;8.70;;;;;;;;;;5026051;28;20025;-57
2021/12/23 14:09:47;;;;;;;16.00;8.30;;;;;;;;;;5025811;28;20421;-57
2021/12/23 14:12:15;;;;;;;16.38;8.27;;;;;;;;;;5024939;28;20030;-55
2021/12/23 14:14:49;;;;;;;14.55;7.43;;;;;;;;;;5027258;28;20025;-57
2021/12/23 14:17:27;;;;;;;18.17;9.35;;;;;;;;;;5027319;28;20046;-57
2021/12/23 14:23:12;;;;;;;19.73;8.68;;;;;;;;;;5029971;28;20087;-54
2021/12/23 14:25:32;;;;;;;18.73;8.38;;;;;;;;;;5026540;28;20060;-52
2021/12/23 14:27:58;;;;;;;19.23;9.07;;;;;;;;;;5029441;28;20120;-56
2021/12/23 14:30:34;;;;;;;19.65;8.70;;;;;;;;;;5023486;28;20076;-56
2021/12/23 14:33:07;;;;;;;15.35;7.10;;;;;;;;;;5018466;28;20417;-57
2021/12/23 14:35:33;;;;;;;18.00;8.43;;;;;;;;;;5022105;28;20054;-55
2021/12/23 14:38:00;;;;;;;17.00;8.65;;;;;;;;;;5024432;28;20022;-53
2021/12/23 14:40:26;;;;;;;20.98;9.57;;;;;;;;;;5031713;28;20080;-52
2021/12/23 14:43:02;;;;;;;19.95;9.30;;;;;;;;;;5026606;28;20195;-51
2021/12/23 14:45:29;;;;;;;21.15;9.52;;;;;;;;;;5027034;28;20034;-57
2021/12/23 14:48:18;;;;;;;17.02;8.77;;;;;;;;;;5026202;28;20072;-53
2021/12/23 14:51:01;;;;;;;19.85;8.85;;;;;;;;;;5025695;28;20025;-57
2021/12/23 14:53:27;;;;;;;16.70;8.43;;;;;;;;;;5030036;28;20109;-54
2021/12/23 14:55:54;;;;;;;15.40;9.25;;;;;;;;;;5031107;28;20097;-57
2021/12/23 14:58:20;;;;;;;20.35;9.40;;;;;;;;;;5030739;28;20025;-57
2021/12/23 15:00:47;;;;;;;17.00;8.82;;;;;;;;;;5029079;28;20779;-56
2021/12/23 15:03:14;;;;;;;16.95;8.02;;;;;;;;;;5028689;28;20396;-51
2021/12/23 15:05:41;;;;;;;19.52;9.38;;;;;;;;;;5029392;28;20057;-55
2021/12/23 15:08:08;;;;;;;16.17;8.23;;;;;;;;;;5031397;28;20042;-53
2021/12/23 15:10:44;;;;;;;18.88;9.60;;;;;;;;;;5031163;28;20030;-56
2021/12/23 15:13:18;;;;;;;16.25;7.97;;;;;;;;;;5028044;28;20022;-56
2021/12/23 15:15:45;;;;;;;19.15;9.65;;;;;;;;;;5028726;28;20050;-55
2021/12/23 15:18:26;;;;;;;18.65;9.27;;;;;;;;;;5024761;28;20104;-56
2021/12/23 15:20:54;;;;;;;17.65;9.07;;;;;;;;;;5029366;28;20029;-55
2021/12/23 15:23:44;;;;;;;20.27;10.10;;;;;;;;;;5028226;28;20380;-53
2021/12/23 15:26:31;;;;;;;20.73;9.15;;;;;;;;;;5028666;28;20025;-55
2021/12/23 15:29:05;;;;;;;16.15;9.05;;;;;;;;;;5026383;28;20355;-55